Time;durP1;ratioP1;P1;durP2;ratioP2;P2;SDS_P1;SDS_P2;PMS_P1;PMS_P2;Temp;Humidity;BMP_temperature;BMP_pressure;BME280_temperature;BME280_humidity;BME280_pressure;Samples;Min_cycle;Max_cycle;Signal;HPM_P1;HPM_P2
2022/06/01 00:00:38;;;;;;;1.83;1.80;;;;;;;;;;4987956;28;20448;-71
2022/06/01 00:03:04;;;;;;;1.40;1.40;;;;;;;;;;4984516;28;20437;-71
2022/06/01 00:05:30;;;;;;;1.30;1.30;;;;;;;;;;4986601;28;20428;-71
2022/06/01 00:07:56;;;;;;;1.23;1.23;;;;;;;;;;4986448;28;20443;-71
2022/06/01 00:10:22;;;;;;;1.50;1.50;;;;;;;;;;4988158;28;20467;-72
2022/06/01 00:12:48;;;;;;;3.27;1.80;;;;;;;;;;4987081;28;20783;-71
2022/06/01 00:15:15;;;;;;;1.57;1.57;;;;;;;;;;4985306;28;20448;-71
2022/06/01 00:17:41;;;;;;;2.50;1.67;;;;;;;;;;4987429;28;20858;-71
2022/06/01 00:20:07;;;;;;;2.07;1.97;;;;;;;;;;4989083;28;20520;-71
2022/06/01 00:22:33;;;;;;;1.67;1.57;;;;;;;;;;4987519;28;20804;-71
2022/06/01 00:24:59;;;;;;;2.00;1.90;;;;;;;;;;4987922;28;20428;-71
2022/06/01 00:27:25;;;;;;;1.70;1.70;;;;;;;;;;4987183;28;20777;-71
2022/06/01 00:29:51;;;;;;;1.30;1.30;;;;;;;;;;4986387;28;20511;-71
2022/06/01 00:32:18;;;;;;;2.30;1.93;;;;;;;;;;4987996;28;20960;-71
2022/06/01 00:34:44;;;;;;;2.40;1.43;;;;;;;;;;4987803;28;20437;-71
2022/06/01 00:37:10;;;;;;;3.13;1.70;;;;;;;;;;4989031;28;20429;-71
2022/06/01 00:39:36;;;;;;;1.57;1.47;;;;;;;;;;4987860;28;20464;-71
2022/06/01 00:42:29;;;;;;;1.87;1.87;;;;;;;;;;4990497;28;20475;-71
2022/06/01 00:44:55;;;;;;;1.80;1.17;;;;;;;;;;4987028;28;20456;-71
2022/06/01 00:47:22;;;;;;;1.63;1.63;;;;;;;;;;4991030;28;20490;-72
2022/06/01 00:49:51;;;;;;;1.63;1.53;;;;;;;;;;4991074;28;21011;-71
2022/06/01 00:52:35;;;;;;;4.00;2.30;;;;;;;;;;4990602;28;20477;-71
2022/06/01 00:55:01;;;;;;;1.57;1.57;;;;;;;;;;4990103;28;20528;-71
2022/06/01 00:57:27;;;;;;;2.03;1.83;;;;;;;;;;4987693;28;20441;-71
2022/06/01 00:59:53;;;;;;;1.80;1.80;;;;;;;;;;4989658;28;20437;-71
2022/06/01 01:02:19;;;;;;;2.13;2.03;;;;;;;;;;4989045;28;20498;-71
2022/06/01 01:04:45;;;;;;;4.60;2.20;;;;;;;;;;4989123;28;20527;-71
2022/06/01 01:07:12;;;;;;;2.40;2.07;;;;;;;;;;4989728;28;20450;-71
2022/06/01 01:09:38;;;;;;;1.93;1.93;;;;;;;;;;4990811;28;20480;-71
2022/06/01 01:12:08;;;;;;;2.03;2.00;;;;;;;;;;4989686;28;20447;-71
2022/06/01 01:14:36;;;;;;;2.17;2.07;;;;;;;;;;4987039;28;20438;-71
2022/06/01 01:17:04;;;;;;;2.13;2.07;;;;;;;;;;4988861;28;20445;-71
2022/06/01 01:19:29;;;;;;;2.10;2.10;;;;;;;;;;4988651;28;20433;-71
2022/06/01 01:22:07;;;;;;;1.90;1.90;;;;;;;;;;4990427;28;20829;-71
2022/06/01 01:24:33;;;;;;;2.33;2.23;;;;;;;;;;4990220;28;20201;-71
2022/06/01 01:26:59;;;;;;;3.27;2.70;;;;;;;;;;4990620;28;20437;-71
2022/06/01 01:29:54;;;;;;;1.73;1.60;;;;;;;;;;4989040;28;20480;-71
2022/06/01 01:32:20;;;;;;;3.23;1.80;;;;;;;;;;4989253;28;20478;-71
2022/06/01 01:34:46;;;;;;;3.03;2.20;;;;;;;;;;4989467;28;20523;-71
2022/06/01 01:37:17;;;;;;;1.77;1.77;;;;;;;;;;4988412;28;20441;-71
2022/06/01 01:39:44;;;;;;;2.67;1.90;;;;;;;;;;4990626;28;20512;-71
2022/06/01 01:42:10;;;;;;;1.93;1.80;;;;;;;;;;4991059;28;20925;-71
2022/06/01 01:44:43;;;;;;;2.43;2.30;;;;;;;;;;4987481;28;20451;-71
2022/06/01 01:47:09;;;;;;;2.20;2.20;;;;;;;;;;4988499;28;20515;-71
2022/06/01 01:49:38;;;;;;;2.43;2.27;;;;;;;;;;4988322;28;20489;-71
2022/06/01 01:52:06;;;;;;;2.20;2.10;;;;;;;;;;4990385;28;20829;-71
2022/06/01 01:54:45;;;;;;;2.33;2.20;;;;;;;;;;4988817;28;20523;-71
2022/06/01 01:57:14;;;;;;;5.00;2.30;;;;;;;;;;4990152;28;20433;-71
2022/06/01 01:59:56;;;;;;;2.03;1.90;;;;;;;;;;4990045;28;20451;-71
2022/06/01 02:02:35;;;;;;;1.93;1.93;;;;;;;;;;4990265;28;20433;-71
2022/06/01 02:07:55;;;;;;;3.37;2.47;;;;;;;;;;4989047;28;20427;-71
2022/06/01 02:13:06;;;;;;;2.33;2.13;;;;;;;;;;4987051;28;20814;-71
2022/06/01 02:15:37;;;;;;;1.50;1.50;;;;;;;;;;4988927;28;20447;-71
2022/06/01 02:18:07;;;;;;;2.47;2.13;;;;;;;;;;4989868;28;20434;-71
2022/06/01 02:20:44;;;;;;;2.33;2.17;;;;;;;;;;4989024;28;20999;-71
2022/06/01 02:23:13;;;;;;;2.63;2.53;;;;;;;;;;4990109;28;20425;-71
2022/06/01 02:25:40;;;;;;;2.50;2.37;;;;;;;;;;4988741;28;20495;-71
2022/06/01 02:28:06;;;;;;;3.80;2.70;;;;;;;;;;4990109;28;20496;-71
2022/06/01 02:30:35;;;;;;;2.23;2.20;;;;;;;;;;4990621;28;20499;-71
2022/06/01 02:33:03;;;;;;;2.00;1.90;;;;;;;;;;4990550;28;21041;-71
2022/06/01 02:35:31;;;;;;;2.87;2.47;;;;;;;;;;4984681;28;20855;-71
2022/06/01 02:37:58;;;;;;;14.40;2.47;;;;;;;;;;4990144;28;20436;-71
2022/06/01 02:40:25;;;;;;;2.20;2.10;;;;;;;;;;4989189;28;20444;-71
2022/06/01 02:42:51;;;;;;;2.57;2.47;;;;;;;;;;4985511;28;20521;-71
2022/06/01 02:45:20;;;;;;;2.07;1.93;;;;;;;;;;4988740;28;20464;-71
2022/06/01 02:47:46;;;;;;;1.90;1.20;;;;;;;;;;4986506;28;20432;-71
2022/06/01 02:50:14;;;;;;;1.83;1.83;;;;;;;;;;4989031;28;20647;-72
2022/06/01 02:52:40;;;;;;;5.30;2.37;;;;;;;;;;4989492;28;20985;-71
2022/06/01 02:55:08;;;;;;;1.80;1.70;;;;;;;;;;4990089;28;20524;-71
2022/06/01 02:57:34;;;;;;;4.80;2.40;;;;;;;;;;4986921;28;20789;-71
2022/06/01 03:00:00;;;;;;;2.47;2.30;;;;;;;;;;4988773;28;20532;-71
2022/06/01 03:02:26;;;;;;;5.70;2.13;;;;;;;;;;4988370;28;20531;-71
2022/06/01 03:04:52;;;;;;;1.37;1.37;;;;;;;;;;4985073;28;20445;-71
2022/06/01 03:07:18;;;;;;;2.70;2.30;;;;;;;;;;4987856;28;20448;-71
2022/06/01 03:09:45;;;;;;;2.37;2.17;;;;;;;;;;4988751;28;20496;-71
2022/06/01 03:12:11;;;;;;;3.03;2.00;;;;;;;;;;4988433;28;20445;-71
2022/06/01 03:14:37;;;;;;;2.13;2.10;;;;;;;;;;4989336;28;20525;-71
2022/06/01 03:17:03;;;;;;;3.70;2.20;;;;;;;;;;4986998;28;20437;-71
2022/06/01 03:19:29;;;;;;;2.77;1.60;;;;;;;;;;4988467;28;20437;-71
2022/06/01 03:21:55;;;;;;;2.60;2.50;;;;;;;;;;4987820;28;20930;-71
2022/06/01 03:24:21;;;;;;;2.13;2.10;;;;;;;;;;4987658;28;20499;-71
2022/06/01 03:26:47;;;;;;;2.63;2.50;;;;;;;;;;4988586;28;20425;-71
2022/06/01 03:29:14;;;;;;;2.43;2.33;;;;;;;;;;4987495;28;20488;-71
2022/06/01 03:31:40;;;;;;;1.80;1.80;;;;;;;;;;4989315;28;20465;-71
2022/06/01 03:34:06;;;;;;;1.67;1.57;;;;;;;;;;4985589;28;20433;-71
2022/06/01 03:36:32;;;;;;;1.53;1.40;;;;;;;;;;4990136;28;20440;-71
2022/06/01 03:38:58;;;;;;;1.70;1.70;;;;;;;;;;4985570;28;20940;-71
2022/06/01 03:41:27;;;;;;;3.37;2.40;;;;;;;;;;4988478;28;20499;-71
2022/06/01 03:46:38;;;;;;;3.13;1.90;;;;;;;;;;4987981;28;20412;-71
2022/06/01 03:49:04;;;;;;;4.17;2.03;;;;;;;;;;4989170;28;20476;-71
2022/06/01 03:51:30;;;;;;;1.80;1.80;;;;;;;;;;4988315;28;20473;-71
2022/06/01 03:53:56;;;;;;;2.97;1.30;;;;;;;;;;4987675;28;20512;-72
2022/06/01 03:56:22;;;;;;;1.83;1.70;;;;;;;;;;4987450;28;20503;-71
2022/06/01 03:58:49;;;;;;;2.40;2.23;;;;;;;;;;4986864;28;20856;-71
2022/06/01 04:01:15;;;;;;;2.70;2.50;;;;;;;;;;4986892;28;20941;-71
2022/06/01 04:03:42;;;;;;;2.30;1.80;;;;;;;;;;4986400;28;20552;-71
2022/06/01 04:06:08;;;;;;;3.70;1.80;;;;;;;;;;4986909;28;20521;-71
2022/06/01 04:08:34;;;;;;;2.10;1.43;;;;;;;;;;4989521;28;20517;-71
2022/06/01 04:11:00;;;;;;;2.83;2.17;;;;;;;;;;4990872;28;20465;-71
2022/06/01 04:13:27;;;;;;;1.90;1.80;;;;;;;;;;4989873;28;20945;-71
2022/06/01 04:15:53;;;;;;;1.83;1.77;;;;;;;;;;4989666;28;20930;-71
2022/06/01 04:18:19;;;;;;;2.83;2.07;;;;;;;;;;4992075;28;20809;-71
2022/06/01 04:20:46;;;;;;;1.73;1.73;;;;;;;;;;4991618;28;20988;-71
2022/06/01 04:23:12;;;;;;;4.40;2.00;;;;;;;;;;4991285;28;20433;-71
2022/06/01 04:25:38;;;;;;;2.23;2.03;;;;;;;;;;4991220;28;20429;-71
2022/06/01 04:28:04;;;;;;;1.73;1.73;;;;;;;;;;4990108;28;20491;-71
2022/06/01 04:30:30;;;;;;;1.80;1.70;;;;;;;;;;4990572;28;20464;-71
2022/06/01 04:32:56;;;;;;;1.70;1.70;;;;;;;;;;4991312;28;20937;-71
2022/06/01 04:35:23;;;;;;;1.93;1.83;;;;;;;;;;4987398;28;20448;-71
2022/06/01 04:37:50;;;;;;;1.97;1.90;;;;;;;;;;4987810;28;20507;-71
2022/06/01 04:40:16;;;;;;;1.90;1.80;;;;;;;;;;4986944;28;20437;-71
2022/06/01 04:42:43;;;;;;;4.03;1.80;;;;;;;;;;4988583;28;20540;-71
2022/06/01 04:45:10;;;;;;;2.20;2.10;;;;;;;;;;4990903;28;20528;-71
2022/06/01 04:47:37;;;;;;;12.90;2.90;;;;;;;;;;4988823;28;20468;-71
2022/06/01 04:50:03;;;;;;;6.60;3.10;;;;;;;;;;4990728;28;20500;-71
2022/06/01 04:52:29;;;;;;;3.63;3.33;;;;;;;;;;4991177;28;20523;-71
2022/06/01 04:54:55;;;;;;;6.57;2.47;;;;;;;;;;4989473;28;20809;-71
2022/06/01 04:57:21;;;;;;;2.20;2.10;;;;;;;;;;4990114;28;20471;-71
2022/06/01 04:59:47;;;;;;;10.07;2.53;;;;;;;;;;4991461;28;20468;-71
2022/06/01 05:02:14;;;;;;;4.87;2.30;;;;;;;;;;4988003;28;20425;-71
2022/06/01 05:04:40;;;;;;;2.30;2.30;;;;;;;;;;4987002;28;20438;-71
2022/06/01 05:07:07;;;;;;;2.60;2.50;;;;;;;;;;4987983;28;20434;-71
2022/06/01 05:09:32;;;;;;;2.50;2.30;;;;;;;;;;4989801;28;20847;-71
2022/06/01 05:11:58;;;;;;;3.50;2.77;;;;;;;;;;4990575;28;20945;-71
2022/06/01 05:14:25;;;;;;;3.03;2.30;;;;;;;;;;4987270;28;20477;-71
2022/06/01 05:16:51;;;;;;;2.87;2.60;;;;;;;;;;4989053;28;20429;-71
2022/06/01 05:19:18;;;;;;;2.57;2.57;;;;;;;;;;4988394;28;21856;-71
2022/06/01 05:21:44;;;;;;;2.80;2.53;;;;;;;;;;4989024;28;21688;-71
2022/06/01 05:24:10;;;;;;;13.30;2.40;;;;;;;;;;4990658;28;20445;-71
2022/06/01 05:26:36;;;;;;;4.20;1.90;;;;;;;;;;4990675;28;20452;-71
2022/06/01 05:29:02;;;;;;;4.00;3.37;;;;;;;;;;4988114;28;21003;-71
2022/06/01 05:31:29;;;;;;;2.20;1.67;;;;;;;;;;4987423;28;20445;-73
2022/06/01 05:33:55;;;;;;;1.97;1.77;;;;;;;;;;4988613;28;21103;-71
2022/06/01 05:36:21;;;;;;;2.57;2.37;;;;;;;;;;4989772;28;20523;-73
2022/06/01 05:38:47;;;;;;;2.03;1.80;;;;;;;;;;4987156;28;20950;-76
2022/06/01 05:41:13;;;;;;;3.23;1.80;;;;;;;;;;4991269;28;21245;-75
2022/06/01 05:43:39;;;;;;;2.03;1.93;;;;;;;;;;4990544;28;20440;-76
2022/06/01 05:46:05;;;;;;;3.23;2.10;;;;;;;;;;4989935;28;20437;-74
2022/06/01 05:48:31;;;;;;;4.53;1.90;;;;;;;;;;4988903;28;20977;-71
2022/06/01 05:50:58;;;;;;;2.97;1.90;;;;;;;;;;4988072;28;20495;-71
2022/06/01 05:53:24;;;;;;;2.83;2.40;;;;;;;;;;4991045;28;20477;-71
2022/06/01 05:55:50;;;;;;;2.13;2.00;;;;;;;;;;4989725;28;20917;-71
2022/06/01 05:58:24;;;;;;;2.97;2.47;;;;;;;;;;4987107;28;20938;-74
2022/06/01 06:00:52;;;;;;;8.67;1.97;;;;;;;;;;4988266;28;20523;-71
2022/06/01 06:03:18;;;;;;;2.30;2.30;;;;;;;;;;4986921;28;20436;-74
2022/06/01 06:08:30;;;;;;;2.43;2.23;;;;;;;;;;4981401;28;20467;-71
2022/06/01 06:10:56;;;;;;;2.50;1.63;;;;;;;;;;4989291;28;20441;-75
2022/06/01 06:13:22;;;;;;;2.07;1.90;;;;;;;;;;4985977;28;20488;-73
2022/06/01 06:15:48;;;;;;;2.47;2.30;;;;;;;;;;4989408;28;20450;-72
2022/06/01 06:18:15;;;;;;;7.20;2.07;;;;;;;;;;4987808;28;21627;-72
2022/06/01 06:20:44;;;;;;;1.80;1.80;;;;;;;;;;4987411;28;20520;-72
2022/06/01 06:23:11;;;;;;;2.23;2.07;;;;;;;;;;4987223;28;20429;-72
2022/06/01 06:25:37;;;;;;;4.20;1.70;;;;;;;;;;4989274;28;20456;-73
2022/06/01 06:28:03;;;;;;;1.83;1.73;;;;;;;;;;4988492;28;20484;-73
2022/06/01 06:30:29;;;;;;;2.30;2.20;;;;;;;;;;4986279;28;21063;-73
2022/06/01 06:32:55;;;;;;;4.40;2.20;;;;;;;;;;4989626;28;20433;-72
2022/06/01 06:35:21;;;;;;;2.50;2.40;;;;;;;;;;4986851;28;20802;-72
2022/06/01 06:37:47;;;;;;;2.20;2.10;;;;;;;;;;4985194;28;20441;-71
2022/06/01 06:40:13;;;;;;;1.50;1.50;;;;;;;;;;4984897;28;20450;-71
2022/06/01 06:42:39;;;;;;;2.10;1.93;;;;;;;;;;4984115;28;20425;-71
2022/06/01 06:45:06;;;;;;;5.80;1.50;;;;;;;;;;4989077;28;20436;-76
2022/06/01 06:47:32;;;;;;;3.17;1.20;;;;;;;;;;4988954;28;20437;-71
2022/06/01 06:49:59;;;;;;;5.80;1.90;;;;;;;;;;4988368;28;20475;-70
2022/06/01 06:52:25;;;;;;;1.60;1.60;;;;;;;;;;4987643;28;20473;-72
2022/06/01 06:54:51;;;;;;;1.90;1.80;;;;;;;;;;4988089;28;20433;-72
2022/06/01 06:57:16;;;;;;;1.60;1.60;;;;;;;;;;4983438;28;20506;-71
2022/06/01 06:59:42;;;;;;;5.60;1.90;;;;;;;;;;4986942;28;20428;-72
2022/06/01 07:02:09;;;;;;;6.70;1.80;;;;;;;;;;4985983;28;20445;-72
2022/06/01 07:04:36;;;;;;;3.70;1.33;;;;;;;;;;4986047;28;20433;-74
2022/06/01 07:07:02;;;;;;;4.00;1.80;;;;;;;;;;4988059;28;20536;-75
2022/06/01 07:09:28;;;;;;;1.53;1.43;;;;;;;;;;4987986;28;21114;-70
2022/06/01 07:11:54;;;;;;;2.63;1.73;;;;;;;;;;4988169;28;20425;-71
2022/06/01 07:14:20;;;;;;;1.23;1.23;;;;;;;;;;4987796;28;20441;-77
2022/06/01 07:16:46;;;;;;;2.17;1.60;;;;;;;;;;4988023;28;20553;-76
2022/06/01 07:19:12;;;;;;;2.70;1.40;;;;;;;;;;4984123;28;20425;-71
2022/06/01 07:21:38;;;;;;;1.60;1.60;;;;;;;;;;4989808;28;20476;-75
2022/06/01 07:24:05;;;;;;;2.13;1.47;;;;;;;;;;4988986;28;20443;-75
2022/06/01 07:26:32;;;;;;;1.87;1.80;;;;;;;;;;4987902;28;20437;-72
2022/06/01 07:28:58;;;;;;;1.27;1.27;;;;;;;;;;4985786;28;20476;-76
2022/06/01 07:31:24;;;;;;;2.43;1.43;;;;;;;;;;4984353;28;20450;-70
2022/06/01 07:33:53;;;;;;;1.53;1.43;;;;;;;;;;4989117;28;20433;-77
2022/06/01 07:36:20;;;;;;;3.03;1.70;;;;;;;;;;4986515;28;20837;-70
2022/06/01 07:44:31;;;;;;;1.37;1.27;;;;;;;;;;4992256;28;20436;-70
2022/06/01 07:46:57;;;;;;;1.63;1.57;;;;;;;;;;4990662;28;20937;-70
2022/06/01 07:49:23;;;;;;;1.50;1.40;;;;;;;;;;4991254;28;20484;-70
2022/06/01 07:51:49;;;;;;;1.77;1.67;;;;;;;;;;4991276;28;20468;-74
2022/06/01 07:54:16;;;;;;;2.80;1.83;;;;;;;;;;4989958;28;20437;-71
2022/06/01 07:56:42;;;;;;;1.90;1.80;;;;;;;;;;4990360;28;20499;-71
2022/06/01 07:59:09;;;;;;;2.90;1.83;;;;;;;;;;4984257;28;20436;-71
2022/06/01 08:01:36;;;;;;;2.63;1.70;;;;;;;;;;4985331;28;20437;-70
2022/06/01 08:04:04;;;;;;;1.30;1.20;;;;;;;;;;4990883;28;20442;-71
2022/06/01 08:06:30;;;;;;;4.13;2.57;;;;;;;;;;4989580;28;20567;-70
2022/06/01 08:08:56;;;;;;;7.63;1.47;;;;;;;;;;4992465;28;20495;-70
2022/06/01 08:14:07;;;;;;;5.50;1.53;;;;;;;;;;4992325;28;20431;-75
2022/06/01 08:16:33;;;;;;;1.53;1.53;;;;;;;;;;4993086;28;20441;-71
2022/06/01 08:18:59;;;;;;;1.50;1.40;;;;;;;;;;4990613;28;20780;-71
2022/06/01 08:21:25;;;;;;;2.40;1.70;;;;;;;;;;4991907;28;20539;-78
2022/06/01 08:23:51;;;;;;;1.70;1.60;;;;;;;;;;4988009;28;20444;-71
2022/06/01 08:26:17;;;;;;;3.13;2.17;;;;;;;;;;4987526;28;20450;-70
2022/06/01 08:28:43;;;;;;;1.60;1.50;;;;;;;;;;4990101;28;20997;-72
2022/06/01 08:31:09;;;;;;;4.10;1.60;;;;;;;;;;4989871;28;20425;-73
2022/06/01 08:33:35;;;;;;;1.47;1.47;;;;;;;;;;4989433;28;20444;-76
2022/06/01 08:36:01;;;;;;;1.90;1.30;;;;;;;;;;4990214;28;20441;-76
2022/06/01 08:38:29;;;;;;;2.80;1.63;;;;;;;;;;4989219;28;20433;-78
2022/06/01 08:41:02;;;;;;;1.43;1.43;;;;;;;;;;4988941;28;20440;-72
2022/06/01 08:43:30;;;;;;;2.93;1.40;;;;;;;;;;4987462;28;20440;-78
2022/06/01 08:46:00;;;;;;;1.67;1.57;;;;;;;;;;4989531;28;20441;-73
2022/06/01 08:48:31;;;;;;;3.80;1.10;;;;;;;;;;4990706;28;20456;-78
2022/06/01 08:50:58;;;;;;;1.50;1.40;;;;;;;;;;4989460;28;20990;-71
2022/06/01 08:53:24;;;;;;;1.10;1.10;;;;;;;;;;4989840;28;21028;-71
2022/06/01 08:55:56;;;;;;;2.40;1.40;;;;;;;;;;4987784;28;20449;-71
2022/06/01 08:58:27;;;;;;;4.93;2.03;;;;;;;;;;4989869;28;20436;-78
2022/06/01 09:00:57;;;;;;;2.70;1.37;;;;;;;;;;4987324;28;20557;-77
2022/06/01 09:03:32;;;;;;;1.30;1.30;;;;;;;;;;4988524;28;20452;-73
2022/06/01 09:06:04;;;;;;;1.37;1.37;;;;;;;;;;4989284;28;20928;-73
2022/06/01 09:08:40;;;;;;;3.43;1.70;;;;;;;;;;4986935;28;20437;-72
2022/06/01 09:11:07;;;;;;;1.67;1.57;;;;;;;;;;4988649;28;20455;-74
2022/06/01 09:13:38;;;;;;;3.70;1.10;;;;;;;;;;4986079;28;20444;-72
2022/06/01 09:16:10;;;;;;;2.00;1.67;;;;;;;;;;4986999;28;20433;-72
2022/06/01 09:18:48;;;;;;;1.47;1.37;;;;;;;;;;4988301;28;20476;-72
2022/06/01 09:24:05;;;;;;;1.23;1.10;;;;;;;;;;4990812;28;20479;-77
2022/06/01 09:26:31;;;;;;;2.60;1.30;;;;;;;;;;4988301;28;20517;-77
2022/06/01 09:28:59;;;;;;;3.23;1.07;;;;;;;;;;4987669;28;20469;-75
2022/06/01 09:31:37;;;;;;;1.53;1.40;;;;;;;;;;4989461;28;20516;-74
2022/06/01 09:34:21;;;;;;;2.73;1.47;;;;;;;;;;4986924;28;20442;-72
2022/06/01 09:36:54;;;;;;;5.37;2.13;;;;;;;;;;4980120;28;20452;-71
2022/06/01 09:39:20;;;;;;;5.90;1.20;;;;;;;;;;4986098;28;20437;-72
2022/06/01 09:41:46;;;;;;;4.13;1.30;;;;;;;;;;4983929;28;20457;-72
2022/06/01 09:44:18;;;;;;;0.67;0.67;;;;;;;;;;4984571;28;20437;-71
2022/06/01 09:46:52;;;;;;;4.07;1.10;;;;;;;;;;4985810;28;20460;-72
2022/06/01 09:49:18;;;;;;;1.20;1.20;;;;;;;;;;4985305;28;20875;-75
2022/06/01 09:51:45;;;;;;;1.20;1.13;;;;;;;;;;4986792;28;21185;-72
2022/06/01 09:54:13;;;;;;;2.27;1.40;;;;;;;;;;4986390;28;20216;-71
2022/06/01 09:56:45;;;;;;;1.40;1.40;;;;;;;;;;4986034;28;20437;-73
2022/06/01 10:07:43;;;;;;;1.47;1.47;;;;;;;;;;4987687;28;20444;-74
2022/06/01 10:10:20;;;;;;;1.80;1.70;;;;;;;;;;4990220;28;20491;-71
2022/06/01 10:12:50;;;;;;;1.10;1.10;;;;;;;;;;4986421;28;20800;-71
2022/06/01 10:15:30;;;;;;;2.00;1.10;;;;;;;;;;4988860;28;20445;-71
2022/06/01 10:18:11;;;;;;;1.33;1.33;;;;;;;;;;4977633;28;20432;-72
2022/06/01 10:20:40;;;;;;;1.33;1.23;;;;;;;;;;4986307;28;20459;-74
2022/06/01 10:23:25;;;;;;;1.33;0.90;;;;;;;;;;4987747;28;20429;-72
2022/06/01 10:25:53;;;;;;;1.83;1.67;;;;;;;;;;4984491;28;20790;-76
2022/06/01 10:28:23;;;;;;;0.70;0.70;;;;;;;;;;4987413;28;20530;-71
2022/06/01 10:30:50;;;;;;;1.30;1.20;;;;;;;;;;4990303;28;20440;-74
2022/06/01 10:33:19;;;;;;;1.67;1.67;;;;;;;;;;4984591;28;20473;-73
2022/06/01 10:35:45;;;;;;;2.77;1.57;;;;;;;;;;4988695;28;20440;-70
2022/06/01 10:38:17;;;;;;;1.50;1.50;;;;;;;;;;4987360;28;20430;-71
2022/06/01 10:40:50;;;;;;;1.57;1.57;;;;;;;;;;4988154;28;20444;-71
2022/06/01 10:43:19;;;;;;;5.80;1.73;;;;;;;;;;4988463;28;20425;-71
2022/06/01 10:45:53;;;;;;;2.70;1.47;;;;;;;;;;4989630;28;20448;-73
2022/06/01 10:48:23;;;;;;;3.00;1.73;;;;;;;;;;4987909;28;20437;-71
2022/06/01 10:50:57;;;;;;;5.77;2.50;;;;;;;;;;4985752;28;20521;-72
2022/06/01 10:53:39;;;;;;;3.07;1.37;;;;;;;;;;4989383;28;21066;-73
2022/06/01 10:56:05;;;;;;;4.13;1.53;;;;;;;;;;4988416;28;20477;-72
2022/06/01 10:58:34;;;;;;;1.97;1.47;;;;;;;;;;4983864;28;20442;-72
2022/06/01 11:01:13;;;;;;;4.17;1.60;;;;;;;;;;4988061;28;20445;-73
2022/06/01 11:04:03;;;;;;;1.33;1.33;;;;;;;;;;4983900;28;20464;-72
2022/06/01 11:06:35;;;;;;;2.17;1.97;;;;;;;;;;4988516;28;20472;-73
2022/06/01 11:09:13;;;;;;;1.80;1.43;;;;;;;;;;4989555;28;20523;-72
2022/06/01 11:11:39;;;;;;;8.57;1.70;;;;;;;;;;4984742;28;20468;-72
2022/06/01 11:14:10;;;;;;;2.13;1.60;;;;;;;;;;4984815;28;20784;-72
2022/06/01 11:16:38;;;;;;;6.90;1.60;;;;;;;;;;4988088;28;20447;-72
2022/06/01 11:19:16;;;;;;;1.33;1.23;;;;;;;;;;4985386;28;20448;-74
2022/06/01 11:21:47;;;;;;;1.57;1.20;;;;;;;;;;4987343;28;20955;-74
2022/06/01 11:24:22;;;;;;;1.40;1.40;;;;;;;;;;4983416;28;20605;-72
2022/06/01 11:27:12;;;;;;;1.53;1.53;;;;;;;;;;4986071;28;20468;-74
2022/06/01 11:29:57;;;;;;;1.43;1.40;;;;;;;;;;4986329;28;20515;-73
2022/06/01 11:32:30;;;;;;;1.40;1.40;;;;;;;;;;4979030;28;20458;-72
2022/06/01 11:35:17;;;;;;;3.83;1.20;;;;;;;;;;4984930;28;20524;-72
2022/06/01 11:38:01;;;;;;;3.73;1.63;;;;;;;;;;4986985;28;20433;-73
2022/06/01 11:40:33;;;;;;;1.10;1.10;;;;;;;;;;4983794;28;20845;-75
2022/06/01 11:43:03;;;;;;;4.80;1.10;;;;;;;;;;4982893;28;20433;-77
2022/06/01 11:45:32;;;;;;;7.23;2.00;;;;;;;;;;4988547;28;20456;-76
2022/06/01 11:48:04;;;;;;;1.20;1.20;;;;;;;;;;4979795;28;20445;-76
2022/06/01 11:51:08;;;;;;;1.10;1.10;;;;;;;;;;4982411;28;20489;-77
2022/06/01 11:53:53;;;;;;;3.40;1.40;;;;;;;;;;4965547;28;20977;-77
2022/06/01 11:56:24;;;;;;;1.57;1.47;;;;;;;;;;4967104;28;20521;-77
2022/06/01 11:59:02;;;;;;;5.80;1.90;;;;;;;;;;4965859;28;20434;-72
2022/06/01 12:01:44;;;;;;;3.90;1.60;;;;;;;;;;4987212;28;20814;-76
2022/06/01 12:04:29;;;;;;;3.50;1.30;;;;;;;;;;4988962;28;20826;-77
2022/06/01 12:06:58;;;;;;;1.60;1.50;;;;;;;;;;4987639;28;20952;-77
2022/06/01 12:09:36;;;;;;;0.87;0.87;;;;;;;;;;4989225;28;20524;-72
2022/06/01 12:12:03;;;;;;;1.30;1.20;;;;;;;;;;4988796;28;20989;-75
2022/06/01 12:14:33;;;;;;;1.60;1.50;;;;;;;;;;4987401;28;20472;-72
2022/06/01 12:17:12;;;;;;;2.00;1.10;;;;;;;;;;4989546;28;20441;-72
2022/06/01 12:19:38;;;;;;;2.77;1.20;;;;;;;;;;4983874;28;20437;-72
2022/06/01 12:22:04;;;;;;;1.40;1.40;;;;;;;;;;4988596;28;20468;-76
2022/06/01 12:30:23;;;;;;;1.00;1.00;;;;;;;;;;4987569;28;20828;-74
2022/06/01 12:32:58;;;;;;;0.80;0.80;;;;;;;;;;4992550;28;20421;-73
2022/06/01 12:35:25;;;;;;;1.23;1.10;;;;;;;;;;4991577;28;20532;-76
2022/06/01 12:37:59;;;;;;;0.97;0.77;;;;;;;;;;4992222;28;20435;-72
2022/06/01 12:40:25;;;;;;;1.23;1.00;;;;;;;;;;4991848;28;20504;-73
2022/06/01 12:42:54;;;;;;;1.13;0.97;;;;;;;;;;4992114;28;20437;-75
2022/06/01 12:45:21;;;;;;;2.33;1.00;;;;;;;;;;4990742;28;20519;-72
2022/06/01 12:48:02;;;;;;;1.00;1.00;;;;;;;;;;4988256;28;20425;-76
2022/06/01 12:50:30;;;;;;;2.20;0.83;;;;;;;;;;4989998;28;20714;-73
2022/06/01 12:53:29;;;;;;;0.97;0.77;;;;;;;;;;4992605;28;20888;-74
2022/06/01 12:56:09;;;;;;;1.30;0.70;;;;;;;;;;4976123;28;20485;-72
2022/06/01 12:58:35;;;;;;;1.00;1.00;;;;;;;;;;4990159;28;20429;-72
2022/06/01 13:01:01;;;;;;;1.90;0.77;;;;;;;;;;4990965;28;20440;-74
2022/06/01 13:03:29;;;;;;;1.30;0.90;;;;;;;;;;4989855;28;20559;-72
2022/06/01 13:05:58;;;;;;;0.90;0.90;;;;;;;;;;4991550;28;20442;-72
2022/06/01 13:08:26;;;;;;;0.87;0.87;;;;;;;;;;4991861;28;20425;-73
2022/06/01 13:10:52;;;;;;;1.90;0.70;;;;;;;;;;4987868;28;20459;-72
2022/06/01 13:13:22;;;;;;;1.03;1.03;;;;;;;;;;4988497;28;20943;-74
2022/06/01 13:15:56;;;;;;;4.33;0.70;;;;;;;;;;4991398;28;20421;-75
2022/06/01 13:18:27;;;;;;;0.80;0.80;;;;;;;;;;4990246;28;20441;-75
2022/06/01 13:21:02;;;;;;;0.90;0.90;;;;;;;;;;4988616;28;20512;-75
2022/06/01 13:23:48;;;;;;;1.00;1.00;;;;;;;;;;4988670;28;20956;-72
2022/06/01 13:26:19;;;;;;;1.00;1.00;;;;;;;;;;5004351;28;21739;-75
2022/06/01 13:28:46;;;;;;;0.93;0.70;;;;;;;;;;4989809;28;20535;-74
2022/06/01 13:31:13;;;;;;;9.10;3.63;;;;;;;;;;4986461;28;20455;-76
2022/06/01 13:33:40;;;;;;;0.97;0.97;;;;;;;;;;4986031;28;20425;-76
2022/06/01 13:36:10;;;;;;;0.80;0.80;;;;;;;;;;4984024;28;20449;-77
2022/06/01 13:38:41;;;;;;;1.70;1.20;;;;;;;;;;4989049;28;20429;-75
2022/06/01 13:41:13;;;;;;;5.70;0.60;;;;;;;;;;4985080;28;20429;-72
2022/06/01 13:43:43;;;;;;;1.87;1.07;;;;;;;;;;4990145;28;20767;-76
2022/06/01 13:46:11;;;;;;;3.10;0.70;;;;;;;;;;4992128;28;20766;-75
2022/06/01 13:48:53;;;;;;;1.27;1.03;;;;;;;;;;4986120;28;20520;-72
2022/06/01 13:51:25;;;;;;;0.83;0.83;;;;;;;;;;4988672;28;20933;-73
2022/06/01 13:53:51;;;;;;;0.70;0.70;;;;;;;;;;4990079;28;20949;-75
2022/06/01 13:56:22;;;;;;;3.47;0.83;;;;;;;;;;4988367;28;20441;-73
2022/06/01 13:58:59;;;;;;;2.20;0.83;;;;;;;;;;4984610;28;20436;-72
2022/06/01 14:01:34;;;;;;;0.77;0.70;;;;;;;;;;4991284;28;20452;-72
2022/06/01 14:04:02;;;;;;;0.97;0.97;;;;;;;;;;4989891;28;20440;-73
2022/06/01 14:06:40;;;;;;;1.30;1.30;;;;;;;;;;4982621;28;20434;-73
2022/06/01 14:09:07;;;;;;;0.83;0.83;;;;;;;;;;4990593;28;20476;-74
2022/06/01 14:11:33;;;;;;;1.60;0.90;;;;;;;;;;4983127;28;20583;-72
2022/06/01 14:14:04;;;;;;;0.73;0.73;;;;;;;;;;4986236;28;21241;-72
2022/06/01 14:16:31;;;;;;;1.10;1.10;;;;;;;;;;4987997;28;21028;-74
2022/06/01 14:18:59;;;;;;;0.80;0.80;;;;;;;;;;4980082;28;20951;-71
2022/06/01 14:21:25;;;;;;;0.90;0.90;;;;;;;;;;4987920;28;20918;-76
2022/06/01 14:23:52;;;;;;;1.13;0.70;;;;;;;;;;4984538;28;20437;-76
2022/06/01 14:29:03;;;;;;;5.47;1.43;;;;;;;;;;4989369;28;20468;-72
2022/06/01 14:31:31;;;;;;;0.70;0.70;;;;;;;;;;4988216;28;20425;-72
2022/06/01 14:33:58;;;;;;;1.47;0.83;;;;;;;;;;4989320;28;20507;-75
2022/06/01 14:36:24;;;;;;;0.80;0.80;;;;;;;;;;4989324;28;20456;-72
2022/06/01 14:38:50;;;;;;;0.90;0.77;;;;;;;;;;4984036;28;20432;-76
2022/06/01 14:41:30;;;;;;;1.83;1.17;;;;;;;;;;4982505;28;20433;-75
2022/06/01 14:43:58;;;;;;;1.27;1.13;;;;;;;;;;4987331;28;20445;-73
2022/06/01 14:46:24;;;;;;;2.50;0.93;;;;;;;;;;4990497;28;20441;-72
2022/06/01 14:48:50;;;;;;;1.53;1.43;;;;;;;;;;4989382;28;20802;-72
2022/06/01 14:51:18;;;;;;;1.03;1.03;;;;;;;;;;4986251;28;20814;-72
2022/06/01 14:53:44;;;;;;;1.37;1.27;;;;;;;;;;4987238;28;20449;-72
2022/06/01 14:56:10;;;;;;;0.80;0.80;;;;;;;;;;4987093;28;20441;-73
2022/06/01 14:58:37;;;;;;;1.60;0.60;;;;;;;;;;4984818;28;20837;-73
2022/06/01 15:01:05;;;;;;;5.50;2.60;;;;;;;;;;4988786;28;20860;-74
2022/06/01 15:03:33;;;;;;;0.90;0.90;;;;;;;;;;4987873;28;20436;-73
2022/06/01 15:06:00;;;;;;;1.17;0.80;;;;;;;;;;4988043;28;20790;-74
2022/06/01 15:08:26;;;;;;;2.70;1.00;;;;;;;;;;4984799;28;20850;-71
2022/06/01 15:10:52;;;;;;;3.80;0.90;;;;;;;;;;4989483;28;20960;-73
2022/06/01 15:13:18;;;;;;;0.90;0.90;;;;;;;;;;4989375;28;20437;-72
2022/06/01 15:15:44;;;;;;;0.90;0.90;;;;;;;;;;4987997;28;20439;-72
2022/06/01 15:18:11;;;;;;;0.90;0.90;;;;;;;;;;4989439;28;20433;-76
2022/06/01 15:20:40;;;;;;;0.90;0.90;;;;;;;;;;4988889;28;20420;-77
2022/06/01 15:23:06;;;;;;;17.87;1.03;;;;;;;;;;4989076;28;20441;-74
2022/06/01 15:25:33;;;;;;;7.20;1.10;;;;;;;;;;4987816;28;20572;-72
2022/06/01 15:27:59;;;;;;;6.57;1.60;;;;;;;;;;4989063;28;20448;-76
2022/06/01 15:41:23;;;;;;;1.23;0.80;;;;;;;;;;4989190;28;20428;-76
2022/06/01 15:43:49;;;;;;;3.17;1.20;;;;;;;;;;4990038;28;20425;-72